Time;durP1;ratioP1;P1;durP2;ratioP2;P2;SDS_P1;SDS_P2;PMS_P1;PMS_P2;Temp;Humidity;BMP_temperature;BMP_pressure;BME280_temperature;BME280_humidity;BME280_pressure;Samples;Min_cycle;Max_cycle;Signal;HPM_P1;HPM_P2
2022/12/19 00:00:12;;;;;;;19.58;12.85;;;;;;;6.60;81.65;101308.09;5096530;28;20064;-64
2022/12/19 00:02:41;;;;;;;19.25;12.10;;;;;;;6.52;81.31;101327.78;5095622;28;20063;-64
2022/12/19 00:05:10;;;;;;;18.83;12.45;;;;;;;6.41;81.25;101343.38;5070439;28;20510;-65
2022/12/19 00:07:38;;;;;;;21.17;12.52;;;;;;;6.49;81.38;101331.88;5096780;28;20052;-64
2022/12/19 00:10:06;;;;;;;21.08;12.18;;;;;;;6.56;81.55;101326.97;5062245;28;20044;-64
2022/12/19 00:12:33;;;;;;;20.85;13.27;;;;;;;6.49;81.24;101314.63;5077935;28;20059;-63
2022/12/19 00:15:01;;;;;;;18.63;11.90;;;;;;;6.73;80.68;101313.84;5076434;28;20048;-64
2022/12/19 00:17:28;;;;;;;18.05;11.45;;;;;;;6.84;80.48;101320.97;5095421;28;20056;-64
2022/12/19 00:19:56;;;;;;;16.75;10.98;;;;;;;6.73;80.28;101321.22;5078197;28;20052;-63
2022/12/19 00:22:24;;;;;;;19.73;11.80;;;;;;;6.74;80.74;101318.22;5089363;28;20053;-64
2022/12/19 00:24:51;;;;;;;18.23;12.35;;;;;;;6.55;80.92;101317.13;5100691;28;20040;-63
2022/12/19 00:27:19;;;;;;;20.73;12.13;;;;;;;6.81;80.58;101315.22;5110633;28;20056;-64
2022/12/19 00:29:47;;;;;;;19.38;11.55;;;;;;;6.65;80.57;101319.88;5078021;28;20118;-63
2022/12/19 00:32:14;;;;;;;24.75;11.70;;;;;;;6.63;80.45;101311.09;5077588;28;20043;-63
2022/12/19 00:34:42;;;;;;;18.10;11.50;;;;;;;6.70;81.02;101310.81;5077598;28;20047;-63
2022/12/19 00:37:10;;;;;;;19.40;12.25;;;;;;;6.91;80.65;101304.25;5061239;28;20466;-64
2022/12/19 00:39:38;;;;;;;19.73;12.40;;;;;;;6.90;80.03;101305.34;5109660;28;20043;-65
2022/12/19 00:42:06;;;;;;;18.35;11.25;;;;;;;6.93;79.79;101301.22;5099949;28;20051;-65
2022/12/19 00:44:33;;;;;;;19.75;11.60;;;;;;;6.70;80.63;101295.22;5096139;28;20522;-64
2022/12/19 00:47:01;;;;;;;17.42;11.05;;;;;;;6.71;80.40;101283.16;5077561;28;20051;-64
2022/12/19 00:49:29;;;;;;;19.60;11.93;;;;;;;6.82;80.62;101281.25;5077232;28;20052;-64
2022/12/19 00:51:58;;;;;;;19.75;11.35;;;;;;;6.88;80.48;101280.16;5095628;28;20055;-63
2022/12/19 00:54:26;;;;;;;19.35;11.05;;;;;;;6.84;80.02;101276.31;5062226;28;20063;-64
2022/12/19 00:56:54;;;;;;;18.27;11.77;;;;;;;6.83;80.20;101270.03;5100431;28;20067;-63
2022/12/19 00:59:22;;;;;;;19.02;11.25;;;;;;;6.71;80.89;101274.97;5077730;28;20044;-64
2022/12/19 01:01:56;;;;;;;19.95;11.77;;;;;;;6.66;81.16;101268.66;5059859;28;20495;-65
2022/12/19 01:04:24;;;;;;;18.08;10.95;;;;;;;6.64;81.83;101276.34;5095668;28;20051;-66
2022/12/19 01:06:56;;;;;;;19.85;12.15;;;;;;;6.85;81.01;101269.78;5095249;28;20486;-64
2022/12/19 01:09:33;;;;;;;17.50;11.00;;;;;;;6.69;81.32;101273.59;5076777;28;20044;-64
2022/12/19 01:14:55;;;;;;;18.00;11.43;;;;;;;6.93;81.02;101276.59;5061069;28;20044;-63
2022/12/19 01:17:35;;;;;;;18.65;11.23;;;;;;;6.66;81.54;101277.69;5094549;28;20052;-63
2022/12/19 01:20:17;;;;;;;19.27;11.30;;;;;;;6.58;82.24;101277.44;5061851;28;20056;-63
2022/12/19 01:22:57;;;;;;;20.92;11.20;;;;;;;6.60;82.57;101281.56;5057365;28;20041;-65
2022/12/19 01:25:27;;;;;;;17.40;11.13;;;;;;;6.76;82.34;101274.16;5082130;28;20497;-64
2022/12/19 01:27:56;;;;;;;18.30;11.35;;;;;;;6.69;82.17;101277.16;5077379;28;20052;-64
2022/12/19 01:30:23;;;;;;;17.77;11.05;;;;;;;6.77;82.12;101273.03;5104693;28;20043;-63
2022/12/19 01:32:52;;;;;;;16.75;10.95;;;;;;;6.71;82.12;101274.16;5081394;28;20039;-63
2022/12/19 01:35:20;;;;;;;18.05;10.85;;;;;;;6.92;81.63;101274.97;5095325;28;20533;-64
2022/12/19 01:37:50;;;;;;;18.95;10.40;;;;;;;7.06;81.16;101281.50;5095480;28;20056;-63
2022/12/19 01:40:18;;;;;;;17.05;10.70;;;;;;;7.11;80.39;101273.28;5094958;28;20055;-64
2022/12/19 01:42:47;;;;;;;14.80;9.93;;;;;;;7.12;80.21;101274.91;5077562;28;20573;-64
2022/12/19 01:45:16;;;;;;;17.20;9.95;;;;;;;7.14;80.33;101269.97;5094926;28;20044;-63
2022/12/19 01:48:09;;;;;;;15.90;9.75;;;;;;;7.16;80.45;101267.78;5084529;28;20529;-63
2022/12/19 01:50:40;;;;;;;16.23;9.88;;;;;;;7.21;79.85;101260.38;5076619;28;20052;-63
2022/12/19 01:53:42;;;;;;;15.70;9.63;;;;;;;7.26;80.06;101265.03;5077202;28;20055;-64
2022/12/19 01:56:23;;;;;;;16.50;10.15;;;;;;;7.18;79.90;101265.59;5076261;28;20051;-63
2022/12/19 01:58:52;;;;;;;15.93;10.35;;;;;;;7.24;80.06;101262.56;5077160;28;20040;-63
2022/12/19 02:01:37;;;;;;;15.80;9.82;;;;;;;7.11;80.08;101268.63;5084770;28;20048;-63
2022/12/19 02:04:24;;;;;;;14.38;9.60;;;;;;;7.26;80.09;101279.56;5098843;28;20052;-64
2022/12/19 02:06:54;;;;;;;14.20;9.23;;;;;;;7.50;79.27;101282.47;5100445;28;20052;-64
2022/12/19 02:09:23;;;;;;;14.55;9.70;;;;;;;7.60;78.79;101283.28;5044386;28;20051;-63
2022/12/19 02:11:52;;;;;;;16.83;11.00;;;;;;;7.58;78.39;101273.69;5043807;28;20055;-63
2022/12/19 02:14:20;;;;;;;16.27;10.00;;;;;;;7.52;78.68;101266.59;5108312;28;20044;-63
2022/12/19 02:16:51;;;;;;;16.35;9.73;;;;;;;7.59;78.72;101258.88;5082737;28;20052;-62
2022/12/19 02:19:51;;;;;;;14.63;9.73;;;;;;;7.49;78.82;101272.63;5076676;28;20048;-63
2022/12/19 02:22:33;;;;;;;15.52;10.27;;;;;;;7.55;79.23;101266.03;5098646;28;20075;-63
2022/12/19 02:25:03;;;;;;;14.20;9.25;;;;;;;7.50;79.38;101269.59;5079740;28;20048;-63
2022/12/19 02:28:00;;;;;;;16.60;9.73;;;;;;;7.46;79.26;101264.97;5095916;28;20055;-63
2022/12/19 02:30:34;;;;;;;14.70;8.80;;;;;;;7.43;79.66;101262.78;5079374;28;20438;-64
2022/12/19 02:33:07;;;;;;;16.02;9.20;;;;;;;7.43;80.11;101271.00;5078378;28;20048;-64
2022/12/19 02:35:40;;;;;;;19.10;9.68;;;;;;;7.59;79.88;101272.59;5062806;28;20051;-64
2022/12/19 02:38:27;;;;;;;14.60;9.27;;;;;;;7.54;79.47;101272.59;5043564;28;20063;-63
2022/12/19 02:41:00;;;;;;;15.15;9.02;;;;;;;7.38;79.97;101274.59;5046819;28;20055;-64
2022/12/19 02:43:30;;;;;;;16.67;9.85;;;;;;;7.39;80.85;101275.41;5063918;28;20372;-63
2022/12/19 02:45:58;;;;;;;17.63;10.30;;;;;;;7.41;80.56;101265.00;5046031;28;20059;-63
2022/12/19 02:48:26;;;;;;;17.25;9.98;;;;;;;7.41;80.81;101267.75;5055541;28;20057;-64
2022/12/19 02:50:54;;;;;;;17.83;10.70;;;;;;;7.49;81.06;101269.88;5050639;28;20049;-63
2022/12/19 02:53:21;;;;;;;18.55;12.15;;;;;;;7.26;82.08;101267.75;5056970;28;20052;-63
2022/12/19 02:56:20;;;;;;;17.08;10.73;;;;;;;7.34;81.88;101265.28;5048766;28;20056;-64
2022/12/19 02:59:22;;;;;;;15.88;10.57;;;;;;;7.43;81.25;101260.88;5040865;28;20053;-63
2022/12/19 03:02:02;;;;;;;18.00;10.55;;;;;;;7.59;81.11;101256.97;5056285;28;20052;-64
2022/12/19 03:04:46;;;;;;;16.63;9.70;;;;;;;7.54;81.70;101262.47;5040251;28;20055;-63
2022/12/19 03:07:36;;;;;;;14.55;10.07;;;;;;;7.69;81.18;101262.41;5035813;28;20053;-63
2022/12/19 03:10:13;;;;;;;20.25;9.73;;;;;;;7.50;81.66;101266.03;5036543;28;20523;-63
2022/12/19 03:12:59;;;;;;;15.18;9.20;;;;;;;7.52;81.49;101258.34;5071380;28;20052;-63
2022/12/19 03:15:27;;;;;;;13.70;9.23;;;;;;;7.72;81.46;101263.78;5073715;28;20048;-63
2022/12/19 03:17:56;;;;;;;16.25;9.85;;;;;;;7.56;81.98;101264.94;5023181;28;20068;-63
2022/12/19 03:20:27;;;;;;;15.27;9.52;;;;;;;7.65;81.62;101266.00;5056512;28;20447;-63
2022/12/19 03:22:54;;;;;;;17.40;9.93;;;;;;;7.66;81.78;101264.88;5039622;28;20048;-64
2022/12/19 03:25:23;;;;;;;17.25;9.68;;;;;;;7.79;81.29;101265.09;5051661;28;20052;-63
2022/12/19 03:27:51;;;;;;;13.77;9.05;;;;;;;7.70;81.71;101268.72;5039415;28;20053;-63
2022/12/19 03:30:19;;;;;;;15.73;9.27;;;;;;;7.57;82.23;101275.63;5056505;28;20048;-62
2022/12/19 03:32:47;;;;;;;19.17;9.30;;;;;;;7.64;82.15;101248.72;5038866;28;20045;-63
2022/12/19 03:35:19;;;;;;;15.82;9.05;;;;;;;7.69;81.92;101250.59;5055353;28;20045;-62
2022/12/19 03:37:49;;;;;;;17.30;9.27;;;;;;;7.72;82.02;101247.31;5021930;28;20048;-63
2022/12/19 03:40:19;;;;;;;16.33;9.38;;;;;;;7.69;82.25;101256.09;5056586;28;20048;-63
2022/12/19 03:45:38;;;;;;;13.23;8.57;;;;;;;7.55;82.52;101249.59;5057635;28;20256;-63
2022/12/19 03:48:10;;;;;;;15.70;8.30;;;;;;;7.65;82.41;101252.28;5065415;28;20062;-63
2022/12/19 03:50:48;;;;;;;14.18;8.35;;;;;;;7.64;82.05;101245.16;5072332;28;20060;-65
2022/12/19 03:53:29;;;;;;;11.70;8.10;;;;;;;7.73;82.18;101249.78;5055524;28;20075;-63
2022/12/19 03:56:28;;;;;;;16.58;8.77;;;;;;;7.84;81.96;101247.81;5059231;28;20068;-63
2022/12/19 03:59:07;;;;;;;14.63;9.07;;;;;;;7.78;81.62;101248.91;5020032;28;20404;-63
2022/12/19 04:01:35;;;;;;;15.02;8.82;;;;;;;7.94;81.44;101255.97;5062366;28;20049;-62
2022/12/19 04:04:03;;;;;;;13.77;8.38;;;;;;;7.83;81.54;101257.94;5074134;28;20060;-65
2022/12/19 04:06:32;;;;;;;17.50;8.40;;;;;;;8.15;80.72;101253.91;5063289;28;20053;-62
2022/12/19 04:09:00;;;;;;;12.27;7.68;;;;;;;8.00;80.79;101260.34;5038764;28;20057;-63
2022/12/19 04:11:32;;;;;;;14.05;7.75;;;;;;;7.88;81.01;101262.56;5054646;28;20045;-62
2022/12/19 04:14:03;;;;;;;13.63;8.25;;;;;;;7.89;81.33;101261.50;5063495;28;20052;-62
2022/12/19 04:17:09;;;;;;;15.02;8.00;;;;;;;7.87;81.15;101269.19;5063487;28;20061;-62
2022/12/19 04:19:42;;;;;;;20.02;7.95;;;;;;;7.86;81.59;101264.81;5038203;28;20057;-62
2022/12/19 04:23:02;;;;;;;15.88;7.88;;;;;;;8.00;81.17;101272.13;5038336;28;20048;-62
2022/12/19 04:25:34;;;;;;;13.38;8.23;;;;;;;8.02;81.01;101275.41;5045727;28;20066;-63
2022/12/19 04:28:04;;;;;;;12.98;8.02;;;;;;;7.92;81.16;101274.63;5038281;28;20060;-63
2022/12/19 04:30:33;;;;;;;14.57;8.20;;;;;;;7.98;81.23;101268.03;5054270;28;20055;-63
2022/12/19 04:33:03;;;;;;;13.00;7.60;;;;;;;7.96;81.11;101271.06;5054927;28;20057;-63
2022/12/19 04:35:31;;;;;;;12.60;7.65;;;;;;;7.96;81.11;101264.75;5055194;28;20056;-63
2022/12/19 04:37:59;;;;;;;18.83;8.38;;;;;;;8.00;81.21;101269.38;5070585;28;20059;-65
2022/12/19 04:40:27;;;;;;;14.50;7.90;;;;;;;7.89;81.13;101270.53;5073155;28;20048;-63
2022/12/19 04:42:54;;;;;;;15.07;7.90;;;;;;;7.96;80.96;101264.75;5054640;28;20052;-64
2022/12/19 04:45:22;;;;;;;12.73;7.50;;;;;;;8.03;81.86;101265.25;5054355;28;20052;-62
2022/12/19 04:47:49;;;;;;;11.95;7.40;;;;;;;8.04;81.08;101266.09;5063285;28;20056;-63
2022/12/19 04:50:17;;;;;;;13.07;7.82;;;;;;;8.17;80.93;101266.28;5077449;28;20055;-64
2022/12/19 04:52:45;;;;;;;13.45;7.68;;;;;;;8.31;80.35;101270.06;5095913;28;20039;-64
2022/12/19 04:55:12;;;;;;;11.45;7.25;;;;;;;8.20;80.58;101264.84;5113936;28;20048;-62
2022/12/19 04:57:40;;;;;;;12.88;7.57;;;;;;;8.02;81.35;101266.34;5077818;28;20059;-65
2022/12/19 05:00:08;;;;;;;10.50;7.55;;;;;;;8.23;80.83;101265.13;5078342;28;20043;-63
2022/12/19 05:02:37;;;;;;;12.45;7.18;;;;;;;8.14;80.87;101263.28;5077668;28;20055;-64
2022/12/19 05:05:04;;;;;;;12.38;7.45;;;;;;;8.17;80.96;101255.28;5095069;28;20059;-63
2022/12/19 05:07:32;;;;;;;10.80;7.57;;;;;;;8.28;80.63;101254.13;5095105;28;20058;-64
2022/12/19 05:10:00;;;;;;;12.70;7.55;;;;;;;8.21;80.90;101253.59;5077622;28;20056;-64
2022/12/19 05:12:28;;;;;;;12.63;7.50;;;;;;;8.32;80.50;101249.72;5075980;28;20048;-63
2022/12/19 05:14:55;;;;;;;13.07;7.25;;;;;;;8.33;80.34;101256.03;5095747;28;20044;-63
2022/12/19 05:17:23;;;;;;;13.75;7.18;;;;;;;8.11;81.26;101252.88;5076047;28;20060;-63
2022/12/19 05:19:50;;;;;;;11.45;7.25;;;;;;;8.35;80.96;101256.56;5095425;28;20059;-63
2022/12/19 05:22:18;;;;;;;10.80;7.28;;;;;;;8.43;80.30;101255.97;5060590;28;20048;-63
2022/12/19 05:24:45;;;;;;;9.35;6.40;;;;;;;8.29;80.67;101258.53;5095224;28;20050;-63
2022/12/19 05:27:14;;;;;;;15.25;7.45;;;;;;;8.32;80.62;101246.97;5078643;28;20055;-64
2022/12/19 05:29:41;;;;;;;12.82;7.40;;;;;;;8.28;80.87;101250.59;5079796;28;20147;-63
2022/12/19 05:32:09;;;;;;;15.00;6.95;;;;;;;8.25;81.27;101249.22;5098274;28;20059;-63
2022/12/19 05:34:36;;;;;;;10.38;6.40;;;;;;;8.35;81.11;101259.31;5077082;28;20051;-64
2022/12/19 05:37:04;;;;;;;12.82;7.72;;;;;;;8.47;80.84;101255.09;5094980;28;20052;-63
2022/12/19 05:39:31;;;;;;;14.07;7.80;;;;;;;8.28;81.03;101264.31;5077403;28;20056;-63
2022/12/19 05:41:59;;;;;;;10.82;7.18;;;;;;;8.51;80.57;101266.31;5095099;28;20514;-63
2022/12/19 05:44:27;;;;;;;12.10;6.90;;;;;;;8.34;80.84;101265.91;5080252;28;20556;-64
2022/12/19 05:46:54;;;;;;;11.88;7.13;;;;;;;8.43;80.73;101275.16;5100484;28;20067;-63
2022/12/19 05:49:21;;;;;;;9.60;6.65;;;;;;;8.39;80.67;101263.94;5095099;28;20483;-64
2022/12/19 05:51:50;;;;;;;14.20;7.22;;;;;;;8.33;80.89;101267.00;5094968;28;20055;-63
2022/12/19 05:54:18;;;;;;;12.80;7.28;;;;;;;8.40;81.48;101262.03;5059906;28;20052;-63
2022/12/19 05:56:46;;;;;;;12.68;7.18;;;;;;;8.47;81.19;101254.28;5106202;28;20136;-63
2022/12/19 05:59:13;;;;;;;12.85;6.78;;;;;;;8.45;80.76;101268.31;5099813;28;20059;-62
2022/12/19 06:01:41;;;;;;;9.65;6.18;;;;;;;8.16;81.66;101261.88;5104187;28;20039;-62
2022/12/19 06:04:09;;;;;;;12.05;6.97;;;;;;;8.39;81.59;101260.38;5135056;27;20050;-62
2022/12/19 06:06:36;;;;;;;11.75;7.22;;;;;;;8.40;81.50;101271.09;5106441;28;20335;-62
2022/12/19 06:09:04;;;;;;;12.40;7.05;;;;;;;8.43;81.24;101273.25;5080508;28;20063;-63
2022/12/19 06:11:31;;;;;;;14.70;6.78;;;;;;;8.38;81.11;101265.06;5098031;28;20048;-64
2022/12/19 06:13:59;;;;;;;12.35;6.30;;;;;;;8.29;81.69;101268.69;5070224;28;20052;-63
2022/12/19 06:16:27;;;;;;;10.30;6.32;;;;;;;8.50;81.14;101270.19;5107358;28;20052;-64
2022/12/19 06:18:54;;;;;;;11.88;6.75;;;;;;;8.53;81.10;101258.63;5087010;28;20044;-63
2022/12/19 06:21:22;;;;;;;12.40;6.30;;;;;;;8.51;80.54;101267.13;5108609;28;20487;-64
2022/12/19 06:23:50;;;;;;;13.50;6.53;;;;;;;8.67;80.33;101271.41;5079604;28;20052;-63
2022/12/19 06:26:19;;;;;;;13.57;6.50;;;;;;;8.73;79.71;101269.44;5098300;28;20590;-64
2022/12/19 06:28:48;;;;;;;10.23;6.55;;;;;;;8.51;80.50;101264.41;5098573;28;20055;-64
2022/12/19 06:31:17;;;;;;;14.70;6.25;;;;;;;8.47;80.62;101251.53;5098051;28;20434;-64
2022/12/19 06:33:45;;;;;;;11.48;7.00;;;;;;;8.46;80.79;101258.94;5098499;28;20055;-62
2022/12/19 06:36:18;;;;;;;11.52;6.90;;;;;;;8.58;80.87;101255.81;5099305;28;20063;-63
2022/12/19 06:38:47;;;;;;;10.40;6.32;;;;;;;8.61;80.48;101258.03;5098251;28;20055;-63
2022/12/19 06:44:04;;;;;;;12.00;6.40;;;;;;;8.48;81.15;101248.50;5098551;28;20510;-63
2022/12/19 06:46:33;;;;;;;11.48;6.47;;;;;;;8.47;81.13;101251.53;5079848;28;20044;-64
2022/12/19 06:49:00;;;;;;;13.30;6.90;;;;;;;8.44;81.22;101254.88;5078814;28;20380;-63
2022/12/19 06:51:28;;;;;;;11.82;6.93;;;;;;;8.51;81.34;101247.94;5097887;28;20507;-63
2022/12/19 06:53:56;;;;;;;11.00;6.93;;;;;;;8.62;80.76;101240.44;5114065;28;20051;-63
2022/12/19 06:56:24;;;;;;;11.90;6.45;;;;;;;8.61;80.77;101239.59;5107428;28;20063;-63
2022/12/19 06:58:51;;;;;;;13.30;6.63;;;;;;;8.45;80.94;101240.84;5097836;28;20052;-65
2022/12/19 07:01:33;;;;;;;12.05;6.70;;;;;;;8.50;81.44;101245.47;5077992;28;20048;-63
2022/12/19 07:04:01;;;;;;;10.38;6.35;;;;;;;8.48;81.47;101240.28;5077587;28;20067;-63
2022/12/19 07:06:28;;;;;;;10.57;6.20;;;;;;;8.47;81.75;101249.59;5088006;28;20043;-63
2022/12/19 07:08:56;;;;;;;10.68;6.28;;;;;;;8.45;81.82;101253.75;5075489;28;20052;-71
2022/12/19 07:11:24;;;;;;;10.48;6.05;;;;;;;8.68;81.06;101253.81;5088971;28;20115;-71
2022/12/19 07:13:51;;;;;;;13.98;6.50;;;;;;;8.40;81.65;101251.88;5098220;28;20052;-73
2022/12/19 07:16:19;;;;;;;10.93;6.50;;;;;;;8.47;81.51;101249.59;5062649;28;20044;-71
2022/12/19 07:18:48;;;;;;;11.15;6.63;;;;;;;8.84;81.20;101257.25;5097482;28;20035;-73
2022/12/19 07:21:15;;;;;;;15.60;6.80;;;;;;;8.79;80.46;101255.38;5097078;28;20066;-72
2022/12/19 07:23:43;;;;;;;11.63;6.30;;;;;;;8.63;80.67;101269.53;5076798;28;20064;-73
2022/12/19 07:26:11;;;;;;;19.40;10.30;;;;;;;8.71;80.86;101269.75;5089782;28;20096;-69
2022/12/19 07:28:39;;;;;;;15.43;7.43;;;;;;;8.84;81.25;101268.22;5086456;28;20051;-69
2022/12/19 07:31:07;;;;;;;12.38;7.28;;;;;;;9.12;81.39;101272.13;5094640;28;20055;-69
2022/12/19 07:33:34;;;;;;;17.00;9.98;;;;;;;9.16;79.71;101268.47;5088891;28;20039;-67
2022/12/19 07:36:02;;;;;;;17.33;7.63;;;;;;;9.28;79.27;101273.56;5097393;28;20048;-64
2022/12/19 07:38:29;;;;;;;12.30;6.40;;;;;;;9.42;78.39;101278.09;5077922;28;20048;-67
2022/12/19 07:41:00;;;;;;;10.68;6.35;;;;;;;9.55;77.64;101276.59;5108160;27;20040;-67
2022/12/19 07:43:28;;;;;;;9.98;5.95;;;;;;;9.62;77.08;101272.38;5100863;28;20414;-68
2022/12/19 07:45:55;;;;;;;10.82;5.90;;;;;;;9.15;77.88;101268.78;5110550;28;20139;-72
2022/12/19 07:48:23;;;;;;;12.63;6.88;;;;;;;9.13;78.23;101267.13;5088021;28;20044;-70
2022/12/19 07:50:50;;;;;;;13.13;6.80;;;;;;;8.92;78.72;101256.63;5101346;28;20406;-71
2022/12/19 07:53:18;;;;;;;14.15;6.68;;;;;;;8.84;79.30;101269.06;5059679;28;20059;-72
2022/12/19 07:55:49;;;;;;;12.75;6.25;;;;;;;8.79;79.79;101276.53;5086689;28;20066;-69
2022/12/19 07:58:17;;;;;;;12.52;6.97;;;;;;;8.64;80.41;101276.66;5097105;28;20052;-72
2022/12/19 08:00:44;;;;;;;12.23;6.22;;;;;;;8.74;80.30;101276.56;5078399;28;20044;-70
2022/12/19 08:03:12;;;;;;;15.38;8.73;;;;;;;8.85;79.59;101278.13;5077396;28;20059;-70
2022/12/19 08:05:39;;;;;;;17.10;9.75;;;;;;;8.84;79.51;101280.03;5084780;28;20063;-69
2022/12/19 08:08:07;;;;;;;11.35;5.72;;;;;;;8.58;80.20;101288.78;5101985;28;20043;-71
2022/12/19 08:10:35;;;;;;;10.18;6.00;;;;;;;8.59;80.87;101284.94;5092469;28;20052;-70
2022/12/19 08:13:02;;;;;;;10.63;5.50;;;;;;;8.74;80.47;101287.56;5075366;28;20048;-71
2022/12/19 08:15:30;;;;;;;16.73;6.25;;;;;;;8.80;80.36;101287.22;5087468;28;20432;-71
2022/12/19 08:17:57;;;;;;;14.90;5.97;;;;;;;8.87;79.76;101286.91;5094122;28;20044;-70
2022/12/19 08:20:25;;;;;;;15.20;6.35;;;;;;;8.97;79.31;101284.88;5104537;28;20060;-70
2022/12/19 08:22:53;;;;;;;10.20;5.90;;;;;;;8.76;79.53;101283.44;5099897;28;20086;-71
2022/12/19 08:25:20;;;;;;;13.05;5.63;;;;;;;8.77;79.50;101289.75;5082804;28;20059;-71
2022/12/19 08:27:47;;;;;;;12.55;6.07;;;;;;;8.76;80.13;101293.59;5082654;28;20047;-72
2022/12/19 08:30:15;;;;;;;12.52;5.90;;;;;;;8.74;79.80;101293.88;5088706;28;20072;-70
2022/12/19 08:32:44;;;;;;;11.27;6.07;;;;;;;8.92;79.69;101290.44;5075886;28;20040;-70
2022/12/19 08:35:11;;;;;;;11.88;6.20;;;;;;;8.88;79.12;101294.84;5088114;28;20052;-72
2022/12/19 08:37:38;;;;;;;12.23;6.30;;;;;;;9.10;79.05;101292.44;5094104;28;20032;-71
2022/12/19 08:40:07;;;;;;;12.65;5.75;;;;;;;9.09;78.50;101284.50;5095270;28;20055;-71
2022/12/19 08:42:34;;;;;;;12.10;6.30;;;;;;;9.05;78.43;101289.75;5106433;28;20055;-71
2022/12/19 08:45:03;;;;;;;11.15;5.95;;;;;;;9.09;78.41;101285.31;5107645;27;20056;-69
2022/12/19 08:47:34;;;;;;;10.93;5.80;;;;;;;9.36;77.90;101294.94;5105931;27;20060;-71
2022/12/19 08:50:03;;;;;;;11.05;6.05;;;;;;;9.29;77.54;101299.97;5111991;28;20052;-72
2022/12/19 08:52:30;;;;;;;13.95;6.55;;;;;;;9.41;76.34;101294.88;5072015;28;20052;-72
2022/12/19 08:54:58;;;;;;;13.65;6.15;;;;;;;9.19;77.29;101297.34;5091116;28;20047;-72
2022/12/19 08:57:25;;;;;;;11.32;5.93;;;;;;;9.07;77.73;101293.03;5088248;28;20055;-72
2022/12/19 08:59:53;;;;;;;14.43;7.00;;;;;;;9.15;78.11;101288.00;5098649;28;20059;-72
2022/12/19 09:02:23;;;;;;;13.40;6.53;;;;;;;9.27;77.62;101281.03;5088761;28;20054;-64
2022/12/19 09:04:50;;;;;;;13.93;6.13;;;;;;;9.54;76.55;101291.44;5091766;28;20498;-63
2022/12/19 09:07:39;;;;;;;9.90;6.05;;;;;;;9.59;75.76;101280.41;5055736;28;20051;-63
2022/12/19 09:10:07;;;;;;;10.73;5.95;;;;;;;9.47;75.62;101289.03;5078219;28;20059;-63
2022/12/19 09:12:34;;;;;;;11.70;6.10;;;;;;;9.52;76.20;101288.97;5093616;28;20483;-63
2022/12/19 09:15:02;;;;;;;12.25;5.65;;;;;;;9.50;75.74;101287.66;5080430;28;20987;-63
2022/12/19 09:17:30;;;;;;;10.65;5.60;;;;;;;9.33;76.33;101299.09;5096353;28;20051;-63
2022/12/19 09:19:57;;;;;;;11.10;6.18;;;;;;;9.26;76.70;101298.59;5092847;28;20048;-63
2022/12/19 09:22:25;;;;;;;9.10;5.47;;;;;;;9.47;76.31;101290.94;5092390;28;20056;-61
2022/12/19 09:24:58;;;;;;;9.88;6.00;;;;;;;9.54;75.33;101286.75;5107510;28;20036;-63
2022/12/19 09:27:25;;;;;;;11.70;5.75;;;;;;;9.32;75.56;101291.97;5093605;28;20386;-61
2022/12/19 09:29:53;;;;;;;11.98;5.65;;;;;;;9.64;75.96;101292.13;5074974;28;20059;-62
2022/12/19 09:32:20;;;;;;;10.18;5.20;;;;;;;9.85;74.67;101298.22;5099587;28;20050;-64
2022/12/19 09:34:48;;;;;;;11.45;5.38;;;;;;;9.88;74.30;101305.88;5067946;28;20066;-63
2022/12/19 09:37:17;;;;;;;12.48;5.60;;;;;;;10.01;74.01;101307.91;5110778;28;20490;-65
2022/12/19 09:39:45;;;;;;;10.07;5.43;;;;;;;9.94;73.21;101311.00;5097577;28;20048;-63
2022/12/19 09:42:49;;;;;;;12.52;5.38;;;;;;;9.93;73.44;101314.06;5095001;28;20044;-63
2022/12/19 09:45:28;;;;;;;12.77;5.45;;;;;;;10.11;73.35;101318.84;5063121;28;20067;-63
2022/12/19 09:48:01;;;;;;;12.65;5.30;;;;;;;10.21;72.27;101329.69;5079138;28;20041;-61
2022/12/19 09:50:44;;;;;;;11.82;5.18;;;;;;;10.11;72.45;101335.34;5076830;28;20801;-62
2022/12/19 09:53:20;;;;;;;16.75;6.78;;;;;;;10.09;72.56;101343.06;5043408;28;20061;-63
2022/12/19 09:55:51;;;;;;;11.25;6.05;;;;;;;10.24;72.71;101329.09;5074741;28;20391;-64
2022/12/19 09:58:35;;;;;;;12.98;6.45;;;;;;;10.12;72.70;101339.72;5082143;28;20048;-62
2022/12/19 10:01:20;;;;;;;12.95;6.18;;;;;;;9.87;73.44;101324.31;5082667;28;20050;-63
2022/12/19 10:03:59;;;;;;;15.13;6.45;;;;;;;9.96;73.46;101330.81;5109159;28;20419;-64
2022/12/19 10:06:28;;;;;;;12.48;6.25;;;;;;;10.01;73.38;101324.41;5100466;28;20052;-63
2022/12/19 10:09:20;;;;;;;10.93;6.10;;;;;;;9.97;73.31;101320.63;5092896;28;20040;-62
2022/12/19 10:12:18;;;;;;;12.55;6.32;;;;;;;9.99;73.54;101316.44;5078528;28;20419;-61
2022/12/19 10:15:34;;;;;;;12.63;5.90;;;;;;;10.14;72.90;101315.47;5064438;28;20181;-62
2022/12/19 10:18:31;;;;;;;13.98;8.93;;;;;;;10.23;72.35;101307.38;5081579;28;20410;-64
2022/12/19 10:21:10;;;;;;;12.70;7.28;;;;;;;10.45;72.18;101307.59;5096022;28;20143;-65
2022/12/19 10:23:47;;;;;;;14.13;8.05;;;;;;;10.18;72.02;101306.31;5084570;28;20059;-65
2022/12/19 10:26:33;;;;;;;12.80;6.65;;;;;;;10.20;72.94;101300.50;5107375;28;20495;-65
2022/12/19 10:29:34;;;;;;;14.20;7.43;;;;;;;10.42;72.28;101294.41;5095636;28;20048;-65
2022/12/19 10:32:11;;;;;;;13.88;7.65;;;;;;;10.53;71.95;101293.16;5097384;28;20049;-64
2022/12/19 10:34:42;;;;;;;12.77;6.72;;;;;;;10.53;71.90;101295.91;5095696;28;20062;-65
2022/12/19 10:37:18;;;;;;;11.65;6.80;;;;;;;10.32;72.19;101295.38;5059117;28;20062;-65
2022/12/19 10:40:03;;;;;;;14.85;6.85;;;;;;;10.29;72.48;101289.69;5068399;28;20056;-65
2022/12/19 10:42:44;;;;;;;11.63;6.85;;;;;;;10.23;72.64;101285.34;5103166;28;20050;-66
2022/12/19 10:45:18;;;;;;;14.55;7.07;;;;;;;10.20;72.83;101281.25;5079816;28;20058;-65
2022/12/19 10:47:47;;;;;;;13.70;6.93;;;;;;;10.27;72.96;101287.19;5097627;28;20586;-65
2022/12/19 10:50:24;;;;;;;10.30;5.95;;;;;;;10.36;72.34;101287.34;5051132;28;20048;-66
2022/12/19 10:52:55;;;;;;;13.52;6.57;;;;;;;10.49;72.32;101290.19;5095806;28;20059;-65
2022/12/19 10:55:35;;;;;;;10.10;6.03;;;;;;;10.62;71.71;101289.41;5063319;28;20048;-66
2022/12/19 10:58:23;;;;;;;12.07;6.00;;;;;;;10.74;71.37;101283.47;5080667;28;20111;-64
2022/12/19 11:00:58;;;;;;;11.77;5.30;;;;;;;10.78;70.89;101278.97;5096143;28;20521;-65
2022/12/19 11:03:26;;;;;;;8.80;5.18;;;;;;;10.66;71.10;101278.63;5081415;28;20066;-66
2022/12/19 11:05:56;;;;;;;11.43;5.18;;;;;;;10.64;71.30;101265.16;5096749;28;20054;-66
2022/12/19 11:08:32;;;;;;;9.70;4.85;;;;;;;10.85;70.86;101268.38;5087034;28;20052;-66
2022/12/19 11:11:03;;;;;;;14.43;5.22;;;;;;;10.91;70.45;101267.19;5078770;28;20044;-65
2022/12/19 11:13:51;;;;;;;30.50;19.60;;;;;;;10.90;70.69;101273.78;5098580;28;20063;-64
2022/12/19 11:16:38;;;;;;;21.85;8.48;;;;;;;10.92;70.58;101263.28;5101708;28;20060;-64
2022/12/19 11:19:29;;;;;;;9.30;4.82;;;;;;;10.87;70.37;101269.72;5069336;28;20051;-65
2022/12/19 11:22:25;;;;;;;9.60;4.90;;;;;;;10.94;70.65;101261.06;5097803;28;20063;-64
2022/12/19 11:25:15;;;;;;;9.20;4.47;;;;;;;10.96;70.50;101256.88;5053935;28;20055;-64
2022/12/19 11:28:13;;;;;;;10.38;4.93;;;;;;;11.06;70.22;101251.19;5085693;28;20395;-64
2022/12/19 11:31:09;;;;;;;10.52;5.25;;;;;;;11.10;70.42;101254.16;5094787;28;20044;-66
2022/12/19 11:34:17;;;;;;;10.07;5.40;;;;;;;11.18;69.91;101253.44;5077927;28;20064;-64
2022/12/19 11:37:03;;;;;;;7.43;4.65;;;;;;;11.24;69.62;101253.03;5093398;28;20047;-64
2022/12/19 11:39:37;;;;;;;7.63;4.30;;;;;;;11.24;69.72;101252.22;5077763;28;20513;-65
2022/12/19 11:42:29;;;;;;;7.72;4.38;;;;;;;11.30;69.24;101240.78;5084586;28;20056;-65
2022/12/19 11:45:10;;;;;;;12.90;5.10;;;;;;;11.44;69.37;101228.97;5102041;28;20048;-64
2022/12/19 11:47:44;;;;;;;11.35;5.55;;;;;;;11.45;69.01;101230.59;5096422;28;20491;-66
2022/12/19 11:50:17;;;;;;;9.43;5.68;;;;;;;11.29;69.40;101228.13;5102856;28;20063;-64
2022/12/19 11:53:07;;;;;;;12.00;6.55;;;;;;;11.38;69.16;101228.25;5091513;28;20051;-63
2022/12/19 11:55:55;;;;;;;11.98;5.97;;;;;;;11.43;69.50;101228.13;5095826;28;20044;-68